Time;durP1;ratioP1;P1;durP2;ratioP2;P2;SDS_P1;SDS_P2;PMS_P1;PMS_P2;Temp;Humidity;BMP_temperature;BMP_pressure;BME280_temperature;BME280_humidity;BME280_pressure;Samples;Min_cycle;Max_cycle;Signal;HPM_P1;HPM_P2
2023/07/24 00:00:12;;;;;;;;;;;;;;;;;;5009306;28;19921;-75
2023/07/24 00:02:38;;;;;;;;;;;;;;;;;;5025349;28;20845;-77
2023/07/24 00:05:03;;;;;;;;;;;;;;;;;;5025717;28;19920;-73
2023/07/24 00:07:29;;;;;;;;;;;;;;;;;;5041342;28;20553;-72
2023/07/24 00:09:59;;;;;;;;;;;;;;;;;;5007102;28;19927;-70
2023/07/24 00:12:24;;;;;;;;;;;;;;;;;;5026729;28;19936;-73
2023/07/24 00:14:52;;;;;;;;;;;;;;;;;;5042128;28;19917;-74
2023/07/24 00:17:20;;;;;;;;;;;;;;;;;;5007830;28;19921;-71
2023/07/24 00:19:45;;;;;;;;;;;;;;;;;;5026323;28;19965;-77
2023/07/24 00:22:10;;;;;;;;;;;;;;;;;;4994352;28;20447;-74
2023/07/24 00:24:38;;;;;;;;;;;;;;;;;;5041904;28;20339;-76
2023/07/24 00:27:03;;;;;;;;;;;;;;;;;;5026834;28;19951;-76
2023/07/24 00:29:29;;;;;;;;;;;;;;;;;;5024115;28;20344;-73
2023/07/24 00:31:54;;;;;;;;;;;;;;;;;;5042906;28;19917;-76
2023/07/24 00:34:19;;;;;;;;;;;;;;;;;;5026394;28;19976;-76
2023/07/24 00:36:45;;;;;;;;;;;;;;;;;;5041534;28;20377;-74
2023/07/24 00:39:10;;;;;;;;;;;;;;;;;;5025207;28;19921;-72
2023/07/24 00:41:38;;;;;;;;;;;;;;;;;;5023261;28;19921;-76
2023/07/24 00:44:03;;;;;;;;;;;;;;;;;;5041513;28;19960;-77
2023/07/24 00:46:32;;;;;;;;;;;;;;;;;;5042114;28;19943;-75
2023/07/24 00:48:57;;;;;;;;;;;;;;;;;;5025071;28;19925;-75
2023/07/24 00:51:23;;;;;;;;;;;;;;;;;;5028724;28;19928;-73
2023/07/24 00:53:48;;;;;;;;;;;;;;;;;;5032767;28;19917;-74
2023/07/24 00:56:16;;;;;;;;;;;;;;;;;;5047613;28;19936;-75
2023/07/24 00:58:41;;;;;;;;;;;;;;;;;;5025848;28;20078;-76
2023/07/24 01:01:07;;;;;;;;;;;;;;;;;;5027360;28;19926;-75
2023/07/24 01:03:32;;;;;;;;;;;;;;;;;;5026118;28;21193;-74
2023/07/24 01:05:57;;;;;;;;;;;;;;;;;;5040316;28;19922;-76
2023/07/24 01:08:23;;;;;;;;;;;;;;;;;;5028874;28;20722;-76
2023/07/24 01:10:48;;;;;;;;;;;;;;;;;;5030593;28;19962;-75
2023/07/24 01:13:13;;;;;;;;;;;;;;;;;;5031338;28;19963;-74
2023/07/24 01:15:39;;;;;;;;;;;;;;;;;;5029270;28;20927;-72
2023/07/24 01:18:04;;;;;;;;;;;;;;;;;;5045171;28;20042;-74
2023/07/24 01:20:29;;;;;;;;;;;;;;;;;;5029482;28;21790;-76
2023/07/24 01:22:55;;;;;;;;;;;;;;;;;;5030099;28;20211;-77
2023/07/24 01:25:20;;;;;;;;;;;;;;;;;;5045205;28;20759;-75
2023/07/24 01:27:45;;;;;;;;;;;;;;;;;;5014395;28;20437;-77
2023/07/24 01:30:11;;;;;;;;;;;;;;;;;;5033596;28;20328;-76
2023/07/24 01:32:36;;;;;;;;;;;;;;;;;;5050151;28;19991;-76
2023/07/24 01:35:01;;;;;;;;;;;;;;;;;;5018542;28;19920;-76
2023/07/24 01:37:26;;;;;;;;;;;;;;;;;;5037899;28;19924;-77
2023/07/24 01:39:52;;;;;;;;;;;;;;;;;;5040699;28;20473;-76
2023/07/24 01:42:17;;;;;;;;;;;;;;;;;;5038880;28;19917;-78
2023/07/24 01:44:42;;;;;;;;;;;;;;;;;;5032651;28;19921;-76
2023/07/24 01:47:08;;;;;;;;;;;;;;;;;;5045719;28;19921;-73
2023/07/24 01:49:33;;;;;;;;;;;;;;;;;;5014835;28;19917;-75
2023/07/24 01:51:58;;;;;;;;;;;;;;;;;;5026725;28;20864;-75
2023/07/24 01:54:24;;;;;;;;;;;;;;;;;;5029683;28;19921;-79
2023/07/24 01:56:49;;;;;;;;;;;;;;;;;;5013555;28;20027;-75
2023/07/24 01:59:14;;;;;;;;;;;;;;;;;;5031245;28;19917;-77
2023/07/24 02:01:40;;;;;;;;;;;;;;;;;;5029887;28;19967;-75
2023/07/24 02:04:06;;;;;;;;;;;;;;;;;;5027593;28;19920;-77
2023/07/24 02:06:31;;;;;;;;;;;;;;;;;;5045100;28;19931;-75
2023/07/24 02:08:59;;;;;;;;;;;;;;;;;;5015685;28;19929;-77
2023/07/24 02:11:24;;;;;;;;;;;;;;;;;;5028469;28;20015;-76
2023/07/24 02:13:49;;;;;;;;;;;;;;;;;;5039884;28;19929;-75
2023/07/24 02:16:15;;;;;;;;;;;;;;;;;;5041081;28;20032;-75
2023/07/24 02:18:40;;;;;;;;;;;;;;;;;;5023211;28;19960;-75
2023/07/24 02:21:05;;;;;;;;;;;;;;;;;;5007560;28;20871;-77
2023/07/24 02:23:31;;;;;;;;;;;;;;;;;;5024630;28;19913;-76
2023/07/24 02:25:56;;;;;;;;;;;;;;;;;;5008643;28;19921;-75
2023/07/24 02:28:21;;;;;;;;;;;;;;;;;;5023742;28;20385;-78
2023/07/24 02:30:46;;;;;;;;;;;;;;;;;;5024334;28;19983;-75
2023/07/24 02:33:12;;;;;;;;;;;;;;;;;;5008641;28;20936;-76
2023/07/24 02:35:37;;;;;;;;;;;;;;;;;;5020294;28;19957;-76
2023/07/24 02:38:02;;;;;;;;;;;;;;;;;;4994111;28;19913;-76
2023/07/24 02:40:28;;;;;;;;;;;;;;;;;;5009051;28;19921;-76
2023/07/24 02:42:53;;;;;;;;;;;;;;;;;;5008264;28;19924;-75
2023/07/24 02:45:18;;;;;;;;;;;;;;;;;;5040417;28;19928;-73
2023/07/24 02:47:44;;;;;;;;;;;;;;;;;;5021402;28;19922;-74
2023/07/24 02:50:09;;;;;;;;;;;;;;;;;;5039720;28;21269;-77
2023/07/24 02:52:34;;;;;;;;;;;;;;;;;;5007436;28;20508;-75
2023/07/24 02:55:00;;;;;;;;;;;;;;;;;;5006315;28;19918;-75
2023/07/24 02:57:25;;;;;;;;;;;;;;;;;;5008383;28;19943;-77
2023/07/24 02:59:50;;;;;;;;;;;;;;;;;;5021428;28;20032;-76
2023/07/24 03:02:16;;;;;;;;;;;;;;;;;;5038942;28;19928;-77
2023/07/24 03:04:41;;;;;;;;;;;;;;;;;;5008021;28;19968;-76
2023/07/24 03:07:06;;;;;;;;;;;;;;;;;;5007329;28;20368;-77
2023/07/24 03:09:32;;;;;;;;;;;;;;;;;;5007206;28;19961;-76
2023/07/24 03:11:57;;;;;;;;;;;;;;;;;;5010133;28;19917;-75
2023/07/24 03:14:22;;;;;;;;;;;;;;;;;;5040459;28;19943;-76
2023/07/24 03:16:50;;;;;;;;;;;;;;;;;;5012557;28;19921;-76
2023/07/24 03:19:20;;;;;;;;;;;;;;;;;;5011732;28;19916;-76
2023/07/24 03:21:45;;;;;;;;;;;;;;;;;;5010723;28;19966;-75
2023/07/24 03:24:10;;;;;;;;;;;;;;;;;;5026040;28;19921;-76
2023/07/24 03:26:36;;;;;;;;;;;;;;;;;;5041678;28;20020;-79
2023/07/24 03:29:01;;;;;;;;;;;;;;;;;;5041120;28;20118;-75
2023/07/24 03:31:26;;;;;;;;;;;;;;;;;;5027097;28;20135;-75
2023/07/24 03:33:52;;;;;;;;;;;;;;;;;;5042142;28;19917;-76
2023/07/24 03:36:20;;;;;;;;;;;;;;;;;;5027002;28;19924;-74
2023/07/24 03:38:45;;;;;;;;;;;;;;;;;;5025129;28;19917;-75
2023/07/24 03:41:10;;;;;;;;;;;;;;;;;;5026951;28;19916;-75
2023/07/24 03:43:36;;;;;;;;;;;;;;;;;;5027132;28;19924;-75
2023/07/24 03:46:01;;;;;;;;;;;;;;;;;;5026436;28;20373;-74
2023/07/24 03:48:29;;;;;;;;;;;;;;;;;;5027031;28;19929;-75
2023/07/24 03:50:54;;;;;;;;;;;;;;;;;;5027307;28;20545;-75
2023/07/24 03:53:19;;;;;;;;;;;;;;;;;;5039821;28;19928;-75
2023/07/24 03:55:45;;;;;;;;;;;;;;;;;;5009876;28;20292;-74
2023/07/24 03:58:10;;;;;;;;;;;;;;;;;;5039274;28;19970;-74
2023/07/24 04:00:36;;;;;;;;;;;;;;;;;;5024872;28;20007;-74
2023/07/24 04:03:01;;;;;;;;;;;;;;;;;;5041260;28;20015;-75
2023/07/24 04:05:27;;;;;;;;;;;;;;;;;;5040391;28;20304;-75
2023/07/24 04:07:52;;;;;;;;;;;;;;;;;;5026522;28;19925;-76
2023/07/24 04:10:17;;;;;;;;;;;;;;;;;;5038660;28;19921;-75
2023/07/24 04:12:43;;;;;;;;;;;;;;;;;;5038381;28;20940;-75
2023/07/24 04:15:08;;;;;;;;;;;;;;;;;;5005338;28;19917;-76
2023/07/24 04:17:35;;;;;;;;;;;;;;;;;;5005599;28;19921;-75
2023/07/24 04:20:01;;;;;;;;;;;;;;;;;;5005035;28;19924;-76
2023/07/24 04:22:26;;;;;;;;;;;;;;;;;;5004325;28;19914;-77
2023/07/24 04:24:51;;;;;;;;;;;;;;;;;;5038461;28;21843;-76
2023/07/24 04:27:17;;;;;;;;;;;;;;;;;;5006361;28;19928;-75
2023/07/24 04:29:42;;;;;;;;;;;;;;;;;;5006197;28;19944;-75
2023/07/24 04:32:07;;;;;;;;;;;;;;;;;;4989883;28;20834;-74
2023/07/24 04:34:33;;;;;;;;;;;;;;;;;;5037892;28;19972;-74
2023/07/24 04:36:58;;;;;;;;;;;;;;;;;;5005168;28;19920;-75
2023/07/24 04:39:23;;;;;;;;;;;;;;;;;;5007164;28;20718;-76
2023/07/24 04:41:51;;;;;;;;;;;;;;;;;;4988193;28;19917;-77
2023/07/24 04:44:16;;;;;;;;;;;;;;;;;;5039016;28;19971;-73
2023/07/24 04:46:42;;;;;;;;;;;;;;;;;;5004040;28;19917;-75
2023/07/24 04:49:07;;;;;;;;;;;;;;;;;;5018657;28;19921;-75
2023/07/24 04:51:35;;;;;;;;;;;;;;;;;;5007619;28;19920;-74
2023/07/24 04:54:01;;;;;;;;;;;;;;;;;;5020355;28;20365;-77
2023/07/24 04:56:26;;;;;;;;;;;;;;;;;;5006011;28;20070;-75
2023/07/24 04:58:51;;;;;;;;;;;;;;;;;;5004025;28;19917;-74
2023/07/24 05:01:16;;;;;;;;;;;;;;;;;;5006420;28;19917;-75
2023/07/24 05:03:42;;;;;;;;;;;;;;;;;;5005386;28;20051;-75
2023/07/24 05:06:07;;;;;;;;;;;;;;;;;;5036573;28;19918;-75
2023/07/24 05:08:32;;;;;;;;;;;;;;;;;;5038144;28;21849;-75
2023/07/24 05:10:58;;;;;;;;;;;;;;;;;;5006996;28;19968;-77
2023/07/24 05:13:23;;;;;;;;;;;;;;;;;;5015678;28;19948;-76
2023/07/24 05:15:49;;;;;;;;;;;;;;;;;;5003558;28;20023;-73
2023/07/24 05:18:14;;;;;;;;;;;;;;;;;;5006023;28;19921;-74
2023/07/24 05:20:39;;;;;;;;;;;;;;;;;;5003065;28;19948;-76
2023/07/24 05:23:05;;;;;;;;;;;;;;;;;;5021196;28;19970;-74
2023/07/24 05:25:30;;;;;;;;;;;;;;;;;;5006596;28;20689;-72
2023/07/24 05:27:55;;;;;;;;;;;;;;;;;;5020080;28;20928;-74
2023/07/24 05:30:23;;;;;;;;;;;;;;;;;;5021170;28;19917;-77
2023/07/24 05:32:49;;;;;;;;;;;;;;;;;;5020079;28;20342;-77
2023/07/24 05:35:14;;;;;;;;;;;;;;;;;;5004774;28;19925;-73
2023/07/24 05:37:39;;;;;;;;;;;;;;;;;;5017564;28;19921;-74
2023/07/24 05:40:05;;;;;;;;;;;;;;;;;;4990801;28;19917;-74
2023/07/24 05:42:30;;;;;;;;;;;;;;;;;;5005405;28;20019;-73
2023/07/24 05:44:55;;;;;;;;;;;;;;;;;;5019941;28;19921;-75
2023/07/24 05:47:21;;;;;;;;;;;;;;;;;;5037514;28;19956;-73
2023/07/24 05:49:46;;;;;;;;;;;;;;;;;;5036529;28;21152;-76
2023/07/24 05:52:14;;;;;;;;;;;;;;;;;;5037933;28;21903;-75
2023/07/24 05:54:42;;;;;;;;;;;;;;;;;;5041161;28;19924;-75
2023/07/24 05:57:08;;;;;;;;;;;;;;;;;;5025240;28;20184;-75
2023/07/24 05:59:33;;;;;;;;;;;;;;;;;;5025562;28;20440;-74
2023/07/24 06:01:58;;;;;;;;;;;;;;;;;;5008125;28;19921;-74
2023/07/24 06:04:23;;;;;;;;;;;;;;;;;;5008353;28;19921;-75
2023/07/24 06:06:49;;;;;;;;;;;;;;;;;;5010602;28;20028;-74
2023/07/24 06:09:14;;;;;;;;;;;;;;;;;;4995365;28;19967;-76
2023/07/24 06:11:39;;;;;;;;;;;;;;;;;;5007237;28;19967;-74
2023/07/24 06:14:04;;;;;;;;;;;;;;;;;;5039718;28;19956;-74
2023/07/24 06:16:32;;;;;;;;;;;;;;;;;;4994748;28;20388;-75
2023/07/24 06:18:57;;;;;;;;;;;;;;;;;;5006948;28;19922;-76
2023/07/24 06:21:23;;;;;;;;;;;;;;;;;;5004881;28;19917;-75
2023/07/24 06:23:48;;;;;;;;;;;;;;;;;;5008999;28;19928;-74
2023/07/24 06:26:13;;;;;;;;;;;;;;;;;;5021928;28;20335;-76
2023/07/24 06:28:39;;;;;;;;;;;;;;;;;;5008537;28;21131;-75
2023/07/24 06:31:04;;;;;;;;;;;;;;;;;;5009159;28;19925;-72
2023/07/24 06:33:29;;;;;;;;;;;;;;;;;;5008286;28;19939;-73
2023/07/24 06:35:54;;;;;;;;;;;;;;;;;;5006372;28;20006;-73
2023/07/24 06:38:21;;;;;;;;;;;;;;;;;;5007545;28;19921;-73
2023/07/24 06:40:46;;;;;;;;;;;;;;;;;;5008669;28;19928;-73
2023/07/24 06:43:12;;;;;;;;;;;;;;;;;;5010926;28;19917;-75
2023/07/24 06:45:37;;;;;;;;;;;;;;;;;;5040152;28;19928;-74
2023/07/24 06:48:02;;;;;;;;;;;;;;;;;;5007980;28;19922;-75
2023/07/24 06:50:28;;;;;;;;;;;;;;;;;;5007026;28;20667;-75
2023/07/24 06:52:53;;;;;;;;;;;;;;;;;;5023017;28;19917;-76
2023/07/24 06:55:19;;;;;;;;;;;;;;;;;;5007444;28;19932;-76
2023/07/24 06:57:46;;;;;;;;;;;;;;;;;;5007560;28;19959;-75
2023/07/24 07:00:11;;;;;;;;;;;;;;;;;;5004220;28;19921;-76
2023/07/24 07:02:37;;;;;;;;;;;;;;;;;;5022333;28;19941;-75
2023/07/24 07:05:02;;;;;;;;;;;;;;;;;;5005940;28;19928;-73
2023/07/24 07:07:27;;;;;;;;;;;;;;;;;;5038233;28;19937;-74
2023/07/24 07:09:55;;;;;;;;;;;;;;;;;;5006495;28;19921;-77
2023/07/24 07:12:20;;;;;;;;;;;;;;;;;;4993247;28;19925;-74
2023/07/24 07:14:46;;;;;;;;;;;;;;;;;;5022482;28;20608;-76
2023/07/24 07:17:11;;;;;;;;;;;;;;;;;;5038639;28;20024;-76
2023/07/24 07:19:36;;;;;;;;;;;;;;;;;;5039871;28;19917;-76
2023/07/24 07:22:01;;;;;;;;;;;;;;;;;;5004780;28;19921;-76
2023/07/24 07:24:27;;;;;;;;;;;;;;;;;;5038947;28;19932;-77
2023/07/24 07:26:52;;;;;;;;;;;;;;;;;;5007398;28;19917;-78
2023/07/24 07:29:17;;;;;;;;;;;;;;;;;;5039261;28;19925;-76
2023/07/24 07:31:43;;;;;;;;;;;;;;;;;;5039626;28;19917;-72
2023/07/24 07:34:08;;;;;;;;;;;;;;;;;;5007823;28;19914;-73
2023/07/24 07:36:33;;;;;;;;;;;;;;;;;;5008335;28;19939;-74
2023/07/24 07:38:59;;;;;;;;;;;;;;;;;;4993026;28;20453;-73
2023/07/24 07:41:24;;;;;;;;;;;;;;;;;;5022243;28;19921;-77
2023/07/24 07:43:49;;;;;;;;;;;;;;;;;;5006684;28;19918;-74
2023/07/24 07:46:15;;;;;;;;;;;;;;;;;;5038879;28;20012;-73
2023/07/24 07:48:40;;;;;;;;;;;;;;;;;;5018431;28;20009;-76
2023/07/24 07:51:06;;;;;;;;;;;;;;;;;;4993335;28;20024;-74
2023/07/24 07:53:33;;;;;;;;;;;;;;;;;;5038180;28;20093;-75
2023/07/24 07:56:02;;;;;;;;;;;;;;;;;;5022511;28;20399;-75
2023/07/24 07:58:27;;;;;;;;;;;;;;;;;;5016604;28;19932;-72
2023/07/24 08:00:52;;;;;;;;;;;;;;;;;;5009904;28;19917;-80
2023/07/24 08:03:18;;;;;;;;;;;;;;;;;;5010668;28;19924;-81
2023/07/24 08:05:43;;;;;;;;;;;;;;;;;;5022473;28;19967;-74
2023/07/24 08:08:08;;;;;;;;;;;;;;;;;;5038595;28;19952;-73
2023/07/24 08:10:34;;;;;;;;;;;;;;;;;;5004569;28;20059;-74
2023/07/24 08:12:59;;;;;;;;;;;;;;;;;;5016544;28;20812;-76
2023/07/24 08:15:27;;;;;;;;;;;;;;;;;;5020356;28;19928;-73
2023/07/24 08:17:52;;;;;;;;;;;;;;;;;;5041941;28;20637;-76
2023/07/24 08:20:17;;;;;;;;;;;;;;;;;;5023610;28;19932;-75
2023/07/24 08:22:43;;;;;;;;;;;;;;;;;;5011528;28;19921;-79
2023/07/24 08:25:08;;;;;;;;;;;;;;;;;;5040621;28;19947;-76
2023/07/24 08:27:34;;;;;;;;;;;;;;;;;;5010809;28;19956;-79
2023/07/24 08:29:59;;;;;;;;;;;;;;;;;;4993539;28;19921;-78
2023/07/24 08:32:24;;;;;;;;;;;;;;;;;;5024702;28;19917;-75
2023/07/24 08:34:49;;;;;;;;;;;;;;;;;;5007153;28;19921;-78
2023/07/24 08:37:15;;;;;;;;;;;;;;;;;;5039671;28;19916;-73
2023/07/24 08:39:41;;;;;;;;;;;;;;;;;;4995894;28;19995;-74
2023/07/24 08:42:06;;;;;;;;;;;;;;;;;;5024470;28;19928;-71
2023/07/24 08:44:37;;;;;;;;;;;;;;;;;;5041530;28;19940;-73
2023/07/24 08:47:05;;;;;;;;;;;;;;;;;;5010446;28;19921;-75
2023/07/24 08:49:33;;;;;;;;;;;;;;;;;;5041728;28;19966;-76
2023/07/24 08:51:59;;;;;;;;;;;;;;;;;;5034288;28;19991;-74
2023/07/24 08:54:26;;;;;;;;;;;;;;;;;;5041238;28;20367;-76
2023/07/24 08:56:52;;;;;;;;;;;;;;;;;;5024713;28;19923;-75
2023/07/24 08:59:17;;;;;;;;;;;;;;;;;;5039744;28;19916;-75
2023/07/24 09:01:43;;;;;;;;;;;;;;;;;;5024262;28;19985;-74
2023/07/24 09:04:08;;;;;;;;;;;;;;;;;;5023578;28;19960;-75
2023/07/24 09:06:33;;;;;;;;;;;;;;;;;;5026073;28;20065;-75
2023/07/24 09:08:59;;;;;;;;;;;;;;;;;;5039580;28;20063;-76
2023/07/24 09:11:26;;;;;;;;;;;;;;;;;;5023486;28;19940;-76
2023/07/24 09:13:52;;;;;;;;;;;;;;;;;;5037241;28;19935;-77
2023/07/24 09:16:17;;;;;;;;;;;;;;;;;;5036825;28;19921;-76
2023/07/24 09:18:43;;;;;;;;;;;;;;;;;;5007213;28;19994;-73
2023/07/24 09:21:14;;;;;;;;;;;;;;;;;;5006011;28;19958;-75
2023/07/24 09:23:44;;;;;;;;;;;;;;;;;;5018766;28;19954;-73
2023/07/24 09:26:10;;;;;;;;;;;;;;;;;;5008288;28;20649;-74
2023/07/24 09:28:35;;;;;;;;;;;;;;;;;;5008949;28;19948;-74
2023/07/24 09:31:04;;;;;;;;;;;;;;;;;;5021612;28;19996;-75
2023/07/24 09:33:29;;;;;;;;;;;;;;;;;;5007937;28;19928;-74
2023/07/24 09:35:55;;;;;;;;;;;;;;;;;;5040243;28;19921;-76
2023/07/24 09:38:20;;;;;;;;;;;;;;;;;;4993107;28;20251;-76
2023/07/24 09:40:47;;;;;;;;;;;;;;;;;;5009668;28;21142;-74
2023/07/24 09:43:12;;;;;;;;;;;;;;;;;;5011082;28;19917;-72
2023/07/24 09:45:40;;;;;;;;;;;;;;;;;;5025555;28;20003;-75
2023/07/24 09:48:10;;;;;;;;;;;;;;;;;;5039114;28;21168;-74
2023/07/24 09:50:36;;;;;;;;;;;;;;;;;;5007939;28;19928;-78
2023/07/24 09:53:01;;;;;;;;;;;;;;;;;;5006820;28;19973;-72
2023/07/24 09:55:29;;;;;;;;;;;;;;;;;;5006493;28;19937;-75
2023/07/24 09:57:54;;;;;;;;;;;;;;;;;;5008651;28;19924;-76
2023/07/24 10:00:20;;;;;;;;;;;;;;;;;;5009370;28;20463;-77
2023/07/24 10:02:45;;;;;;;;;;;;;;;;;;5011167;28;19921;-69
2023/07/24 10:05:13;;;;;;;;;;;;;;;;;;5007675;28;19960;-73
2023/07/24 10:07:38;;;;;;;;;;;;;;;;;;5023770;28;19991;-74
2023/07/24 10:10:03;;;;;;;;;;;;;;;;;;5010191;28;21100;-73
2023/07/24 10:12:30;;;;;;;;;;;;;;;;;;5009402;28;19923;-75
2023/07/24 10:14:55;;;;;;;;;;;;;;;;;;5029286;28;19955;-71
2023/07/24 10:17:20;;;;;;;;;;;;;;;;;;5028209;28;20074;-74
2023/07/24 10:19:48;;;;;;;;;;;;;;;;;;5029754;28;19916;-76
2023/07/24 10:22:13;;;;;;;;;;;;;;;;;;5027281;28;20536;-72
2023/07/24 10:24:41;;;;;;;;;;;;;;;;;;5012710;28;19927;-74
2023/07/24 10:27:07;;;;;;;;;;;;;;;;;;5013542;28;19921;-74
2023/07/24 10:29:32;;;;;;;;;;;;;;;;;;5044167;28;19951;-78
2023/07/24 10:31:58;;;;;;;;;;;;;;;;;;5044003;28;19952;-76
2023/07/24 10:34:25;;;;;;;;;;;;;;;;;;5028155;28;19916;-77
2023/07/24 10:36:54;;;;;;;;;;;;;;;;;;5042835;28;20013;-75
2023/07/24 10:39:20;;;;;;;;;;;;;;;;;;5025961;28;20019;-75
2023/07/24 10:41:46;;;;;;;;;;;;;;;;;;5028487;28;20909;-74
2023/07/24 10:44:11;;;;;;;;;;;;;;;;;;5026950;28;19921;-74
2023/07/24 10:46:36;;;;;;;;;;;;;;;;;;5027581;28;19924;-74
2023/07/24 10:49:02;;;;;;;;;;;;;;;;;;5012268;28;19979;-74
2023/07/24 10:51:27;;;;;;;;;;;;;;;;;;5043426;28;19921;-75
2023/07/24 10:53:55;;;;;;;;;;;;;;;;;;5042013;28;19948;-75
2023/07/24 10:56:20;;;;;;;;;;;;;;;;;;5044815;28;20016;-76
2023/07/24 10:58:45;;;;;;;;;;;;;;;;;;5041122;28;20026;-70
2023/07/24 11:01:11;;;;;;;;;;;;;;;;;;5043898;28;20470;-75
2023/07/24 11:03:36;;;;;;;;;;;;;;;;;;5044484;28;20402;-80
2023/07/24 11:06:02;;;;;;;;;;;;;;;;;;5029143;28;20350;-77
2023/07/24 11:08:27;;;;;;;;;;;;;;;;;;5026668;28;19955;-77
2023/07/24 11:10:52;;;;;;;;;;;;;;;;;;5045491;28;19921;-70
2023/07/24 11:13:18;;;;;;;;;;;;;;;;;;5027043;28;19929;-75
2023/07/24 11:15:43;;;;;;;;;;;;;;;;;;5042907;28;19970;-81
2023/07/24 11:18:08;;;;;;;;;;;;;;;;;;5027595;28;20008;-78
2023/07/24 11:20:34;;;;;;;;;;;;;;;;;;5044732;28;19933;-74
2023/07/24 11:22:59;;;;;;;;;;;;;;;;;;5043950;28;19943;-77
2023/07/24 11:25:27;;;;;;;;;;;;;;;;;;5043295;28;19931;-76
2023/07/24 11:27:52;;;;;;;;;;;;;;;;;;5045379;28;19917;-78
2023/07/24 11:30:18;;;;;;;;;;;;;;;;;;5043037;28;21749;-76
2023/07/24 11:32:43;;;;;;;;;;;;;;;;;;5026372;28;19921;-77
2023/07/24 11:35:08;;;;;;;;;;;;;;;;;;5007862;28;20575;-78
2023/07/24 11:37:34;;;;;;;;;;;;;;;;;;5043128;28;19940;-75
2023/07/24 11:39:59;;;;;;;;;;;;;;;;;;5045921;28;19917;-78
2023/07/24 11:42:24;;;;;;;;;;;;;;;;;;5047181;28;19928;-77
2023/07/24 11:44:50;;;;;;;;;;;;;;;;;;5029799;28;19936;-78
2023/07/24 11:47:15;;;;;;;;;;;;;;;;;;5028804;28;19921;-75
2023/07/24 11:49:47;;;;;;;;;;;;;;;;;;5014548;28;20127;-77
2023/07/24 11:52:13;;;;;;;;;;;;;;;;;;5029873;28;19946;-78
2023/07/24 11:54:38;;;;;;;;;;;;;;;;;;4999848;28;19925;-78
2023/07/24 11:57:04;;;;;;;;;;;;;;;;;;5045801;28;19939;-78
2023/07/24 11:59:32;;;;;;;;;;;;;;;;;;5032409;28;19925;-78
2023/07/24 12:01:57;;;;;;;;;;;;;;;;;;5013655;28;20812;-79
2023/07/24 12:04:22;;;;;;;;;;;;;;;;;;5030189;28;19927;-78
2023/07/24 12:06:49;;;;;;;;;;;;;;;;;;5028732;28;19921;-75
2023/07/24 12:09:15;;;;;;;;;;;;;;;;;;5027275;28;19917;-76
2023/07/24 12:11:41;;;;;;;;;;;;;;;;;;5029627;28;19927;-75
2023/07/24 12:14:06;;;;;;;;;;;;;;;;;;5022686;28;19929;-84
2023/07/24 12:16:32;;;;;;;;;;;;;;;;;;5043738;28;19921;-75
2023/07/24 12:18:57;;;;;;;;;;;;;;;;;;5040019;28;19921;-74
2023/07/24 12:21:22;;;;;;;;;;;;;;;;;;5006192;28;19921;-73
2023/07/24 12:23:48;;;;;;;;;;;;;;;;;;5005781;28;20254;-68
2023/07/24 12:26:14;;;;;;;;;;;;;;;;;;5008266;28;20455;-66
2023/07/24 12:28:41;;;;;;;;;;;;;;;;;;5023766;28;20376;-66
2023/07/24 12:31:09;;;;;;;;;;;;;;;;;;5007935;28;19990;-66
2023/07/24 12:33:38;;;;;;;;;;;;;;;;;;5006001;28;19924;-66
2023/07/24 12:36:03;;;;;;;;;;;;;;;;;;5006791;28;19921;-66
2023/07/24 12:38:29;;;;;;;;;;;;;;;;;;5025126;28;19932;-67
2023/07/24 12:40:54;;;;;;;;;;;;;;;;;;5021544;28;19928;-66
2023/07/24 12:43:19;;;;;;;;;;;;;;;;;;5005660;28;19929;-66
2023/07/24 12:45:45;;;;;;;;;;;;;;;;;;5004419;28;19948;-66
2023/07/24 12:48:10;;;;;;;;;;;;;;;;;;5006005;28;19975;-66
2023/07/24 12:50:38;;;;;;;;;;;;;;;;;;5007040;28;20004;-66
2023/07/24 12:53:03;;;;;;;;;;;;;;;;;;5019989;28;20335;-67
2023/07/24 12:55:29;;;;;;;;;;;;;;;;;;5007308;28;20416;-66
2023/07/24 12:57:55;;;;;;;;;;;;;;;;;;5037332;28;19925;-69
2023/07/24 13:00:23;;;;;;;;;;;;;;;;;;5007178;28;20372;-66
2023/07/24 13:02:51;;;;;;;;;;;;;;;;;;5037065;28;19917;-68
2023/07/24 13:05:16;;;;;;;;;;;;;;;;;;5019864;28;19952;-68
2023/07/24 13:07:42;;;;;;;;;;;;;;;;;;5006400;28;19917;-68
2023/07/24 13:10:07;;;;;;;;;;;;;;;;;;5020243;28;19929;-68
2023/07/24 13:12:32;;;;;;;;;;;;;;;;;;5021750;28;19991;-68
2023/07/24 13:14:58;;;;;;;;;;;;;;;;;;5022882;28;20396;-70
2023/07/24 13:17:23;;;;;;;;;;;;;;;;;;5025337;28;19917;-68
2023/07/24 13:19:49;;;;;;;;;;;;;;;;;;5026267;28;19931;-67
2023/07/24 13:22:14;;;;;;;;;;;;;;;;;;5023337;28;19971;-68
2023/07/24 13:24:42;;;;;;;;;;;;;;;;;;5026798;28;20036;-70
2023/07/24 13:27:07;;;;;;;;;;;;;;;;;;5025155;28;19916;-67
2023/07/24 13:29:35;;;;;;;;;;;;;;;;;;5024548;28;19921;-70
2023/07/24 13:32:01;;;;;;;;;;;;;;;;;;5011902;28;19923;-75
2023/07/24 13:34:26;;;;;;;;;;;;;;;;;;5024662;28;19928;-72
2023/07/24 13:36:54;;;;;;;;;;;;;;;;;;5024307;28;20374;-71
2023/07/24 13:39:19;;;;;;;;;;;;;;;;;;5023747;28;19921;-73
2023/07/24 13:41:44;;;;;;;;;;;;;;;;;;5041633;28;19978;-72
2023/07/24 13:44:10;;;;;;;;;;;;;;;;;;5024587;28;19928;-71
2023/07/24 13:46:38;;;;;;;;;;;;;;;;;;5009773;28;19924;-71
2023/07/24 13:49:04;;;;;;;;;;;;;;;;;;5041358;28;19920;-74
2023/07/24 13:51:29;;;;;;;;;;;;;;;;;;5023459;28;19927;-73
2023/07/24 13:53:54;;;;;;;;;;;;;;;;;;5025478;28;19987;-75
2023/07/24 13:56:22;;;;;;;;;;;;;;;;;;5026040;28;19958;-73
2023/07/24 13:58:47;;;;;;;;;;;;;;;;;;5025061;28;19920;-75
2023/07/24 14:01:13;;;;;;;;;;;;;;;;;;5028386;28;19919;-79
2023/07/24 14:03:38;;;;;;;;;;;;;;;;;;5027290;28;19920;-78
2023/07/24 14:06:03;;;;;;;;;;;;;;;;;;5041090;28;19940;-75
2023/07/24 14:08:29;;;;;;;;;;;;;;;;;;5026826;28;19931;-75
2023/07/24 14:10:54;;;;;;;;;;;;;;;;;;5026559;28;19921;-76
2023/07/24 14:13:19;;;;;;;;;;;;;;;;;;5028897;28;19929;-77
2023/07/24 14:15:44;;;;;;;;;;;;;;;;;;5028832;28;19974;-73
2023/07/24 14:18:10;;;;;;;;;;;;;;;;;;5011103;28;19924;-74
2023/07/24 14:20:37;;;;;;;;;;;;;;;;;;5029342;28;19924;-76
2023/07/24 14:23:02;;;;;;;;;;;;;;;;;;5028546;28;19917;-75
2023/07/24 14:25:27;;;;;;;;;;;;;;;;;;5028097;28;19920;-74
2023/07/24 14:27:53;;;;;;;;;;;;;;;;;;5043978;28;20023;-77
2023/07/24 14:30:18;;;;;;;;;;;;;;;;;;5025240;28;21820;-74
2023/07/24 14:32:43;;;;;;;;;;;;;;;;;;5043683;28;19920;-71
2023/07/24 14:35:11;;;;;;;;;;;;;;;;;;5027879;28;19921;-70
2023/07/24 14:37:36;;;;;;;;;;;;;;;;;;5042945;28;19921;-72
2023/07/24 14:40:04;;;;;;;;;;;;;;;;;;5027278;28;19920;-73
2023/07/24 14:42:30;;;;;;;;;;;;;;;;;;5024524;28;20583;-73
2023/07/24 14:45:01;;;;;;;;;;;;;;;;;;5043822;28;19923;-74
2023/07/24 14:47:27;;;;;;;;;;;;;;;;;;5027097;28;20012;-72
2023/07/24 14:49:52;;;;;;;;;;;;;;;;;;5041741;28;19921;-71
2023/07/24 14:52:17;;;;;;;;;;;;;;;;;;5027962;28;20007;-72
2023/07/24 14:54:45;;;;;;;;;;;;;;;;;;5025278;28;20386;-72
2023/07/24 14:57:11;;;;;;;;;;;;;;;;;;5043171;28;19931;-74
2023/07/24 14:59:36;;;;;;;;;;;;;;;;;;5029297;28;19920;-72
2023/07/24 15:02:02;;;;;;;;;;;;;;;;;;5024686;28;20032;-72
2023/07/24 15:04:29;;;;;;;;;;;;;;;;;;5043014;28;19928;-71
2023/07/24 15:06:55;;;;;;;;;;;;;;;;;;5040904;28;19980;-72
2023/07/24 15:09:20;;;;;;;;;;;;;;;;;;5021674;28;19921;-71
2023/07/24 15:11:48;;;;;;;;;;;;;;;;;;5025759;28;19924;-72
2023/07/24 15:14:15;;;;;;;;;;;;;;;;;;5025998;28;19935;-71
2023/07/24 15:16:41;;;;;;;;;;;;;;;;;;5044053;28;21747;-72
2023/07/24 15:19:06;;;;;;;;;;;;;;;;;;5040456;28;20011;-73
2023/07/24 15:21:32;;;;;;;;;;;;;;;;;;5024037;28;19917;-72
2023/07/24 15:23:57;;;;;;;;;;;;;;;;;;5027091;28;19921;-73
2023/07/24 15:26:22;;;;;;;;;;;;;;;;;;5042443;28;20691;-74
2023/07/24 15:28:48;;;;;;;;;;;;;;;;;;5041897;28;20364;-72
2023/07/24 15:31:16;;;;;;;;;;;;;;;;;;5025097;28;19920;-73
2023/07/24 15:33:44;;;;;;;;;;;;;;;;;;5028098;28;19927;-76
2023/07/24 15:36:14;;;;;;;;;;;;;;;;;;5036964;28;20620;-73
2023/07/24 15:38:39;;;;;;;;;;;;;;;;;;5026418;28;20065;-70
2023/07/24 15:41:05;;;;;;;;;;;;;;;;;;5026277;28;19964;-73
2023/07/24 15:43:32;;;;;;;;;;;;;;;;;;5027655;28;20395;-74
2023/07/24 15:45:58;;;;;;;;;;;;;;;;;;5026698;28;19967;-71
2023/07/24 15:48:23;;;;;;;;;;;;;;;;;;5025124;28;19962;-71
2023/07/24 15:50:48;;;;;;;;;;;;;;;;;;5024347;28;19921;-72
2023/07/24 15:53:14;;;;;;;;;;;;;;;;;;5025099;28;19927;-72
2023/07/24 15:55:39;;;;;;;;;;;;;;;;;;5025342;28;19928;-74
2023/07/24 15:58:05;;;;;;;;;;;;;;;;;;5009271;28;19925;-70
2023/07/24 16:00:32;;;;;;;;;;;;;;;;;;5026701;28;19921;-71
2023/07/24 16:02:58;;;;;;;;;;;;;;;;;;5043447;28;19922;-74
2023/07/24 16:05:23;;;;;;;;;;;;;;;;;;5023984;28;19925;-74
2023/07/24 16:07:49;;;;;;;;;;;;;;;;;;5025284;28;19921;-75
2023/07/24 16:10:14;;;;;;;;;;;;;;;;;;5027117;28;19920;-75
2023/07/24 16:12:40;;;;;;;;;;;;;;;;;;5042190;28;19917;-74
2023/07/24 16:15:08;;;;;;;;;;;;;;;;;;5026135;28;19960;-76
2023/07/24 16:17:33;;;;;;;;;;;;;;;;;;5009796;28;20493;-74
2023/07/24 16:19:59;;;;;;;;;;;;;;;;;;5040713;28;19921;-74
2023/07/24 16:22:24;;;;;;;;;;;;;;;;;;5040141;28;20378;-73
2023/07/24 16:24:49;;;;;;;;;;;;;;;;;;5027394;28;20398;-72
2023/07/24 16:27:14;;;;;;;;;;;;;;;;;;5007099;28;19968;-71
2023/07/24 16:29:40;;;;;;;;;;;;;;;;;;5024733;28;19917;-74
2023/07/24 16:32:05;;;;;;;;;;;;;;;;;;5025402;28;19931;-70
2023/07/24 16:34:32;;;;;;;;;;;;;;;;;;5027779;28;19920;-72